Time;durP1;ratioP1;P1;durP2;ratioP2;P2;SDS_P1;SDS_P2;PMS_P1;PMS_P2;Temp;Humidity;BMP_temperature;BMP_pressure;BME280_temperature;BME280_humidity;BME280_pressure;Samples;Min_cycle;Max_cycle;Signal;HPM_P1;HPM_P2
2023/10/05 00:01:27;;;;;;;2.97;2.40;;;;;;;;;;5013850;28;20257;-71
2023/10/05 00:03:53;;;;;;;3.80;2.50;;;;;;;;;;5014100;28;20202;-71
2023/10/05 00:06:24;;;;;;;4.68;2.50;;;;;;;;;;5013615;28;20711;-71
2023/10/05 00:08:52;;;;;;;4.22;2.75;;;;;;;;;;5013609;28;20222;-71
2023/10/05 00:11:23;;;;;;;3.78;2.55;;;;;;;;;;5013621;28;20779;-71
2023/10/05 00:13:50;;;;;;;3.35;2.40;;;;;;;;;;5013766;28;20249;-71
2023/10/05 00:16:20;;;;;;;7.38;2.33;;;;;;;;;;5013430;28;20222;-71
2023/10/05 00:18:48;;;;;;;4.22;1.95;;;;;;;;;;5013358;28;20202;-71
2023/10/05 00:21:19;;;;;;;4.10;2.42;;;;;;;;;;5013475;28;20225;-71
2023/10/05 00:23:48;;;;;;;2.47;2.38;;;;;;;;;;5013467;28;20203;-71
2023/10/05 00:26:15;;;;;;;4.72;2.67;;;;;;;;;;5013386;28;20313;-71
2023/10/05 00:28:47;;;;;;;3.60;2.38;;;;;;;;;;5013206;28;20203;-71
2023/10/05 00:31:14;;;;;;;5.47;2.17;;;;;;;;;;5013063;28;20211;-71
2023/10/05 00:33:41;;;;;;;2.42;1.92;;;;;;;;;;5013196;28;20230;-71
2023/10/05 00:36:08;;;;;;;3.75;2.47;;;;;;;;;;5013075;28;20222;-71
2023/10/05 00:38:35;;;;;;;3.20;2.50;;;;;;;;;;5013012;28;20568;-71
2023/10/05 00:41:08;;;;;;;4.88;2.40;;;;;;;;;;5013241;28;20233;-71
2023/10/05 00:43:34;;;;;;;3.47;2.13;;;;;;;;;;5013500;28;20213;-71
2023/10/05 00:46:01;;;;;;;6.30;2.22;;;;;;;;;;5013189;28;20305;-71
2023/10/05 00:48:29;;;;;;;5.28;2.15;;;;;;;;;;5012985;28;20233;-71
2023/10/05 00:50:59;;;;;;;4.28;2.50;;;;;;;;;;5011871;28;20195;-71
2023/10/05 00:53:28;;;;;;;5.78;2.33;;;;;;;;;;5012928;28;20618;-71
2023/10/05 00:56:07;;;;;;;4.55;2.35;;;;;;;;;;5013081;28;20214;-71
2023/10/05 00:58:38;;;;;;;3.08;2.63;;;;;;;;;;5011960;28;20264;-71
2023/10/05 01:01:05;;;;;;;2.88;2.25;;;;;;;;;;5012787;28;20253;-71
2023/10/05 01:03:34;;;;;;;2.60;2.40;;;;;;;;;;5012911;28;20225;-71
2023/10/05 01:06:11;;;;;;;4.45;2.50;;;;;;;;;;5012868;28;20236;-71
2023/10/05 01:08:49;;;;;;;2.60;2.33;;;;;;;;;;5011985;28;20202;-71
2023/10/05 01:11:25;;;;;;;5.22;2.63;;;;;;;;;;5012830;28;20205;-71
2023/10/05 01:13:52;;;;;;;6.45;2.83;;;;;;;;;;5012573;28;20665;-71
2023/10/05 01:16:20;;;;;;;5.28;2.72;;;;;;;;;;5012573;28;20222;-71
2023/10/05 01:18:46;;;;;;;4.57;2.60;;;;;;;;;;5012173;28;20198;-71
2023/10/05 01:21:12;;;;;;;4.85;3.22;;;;;;;;;;5012496;28;20269;-71
2023/10/05 01:23:41;;;;;;;6.10;3.70;;;;;;;;;;5012541;28;20207;-71
2023/10/05 01:26:10;;;;;;;4.18;3.80;;;;;;;;;;5012416;28;20250;-71
2023/10/05 01:28:36;;;;;;;8.32;4.82;;;;;;;;;;5012027;28;20225;-71
2023/10/05 01:31:07;;;;;;;8.38;3.97;;;;;;;;;;5011474;28;20655;-71
2023/10/05 01:33:33;;;;;;;9.50;4.47;;;;;;;;;;5011748;28;20717;-71
2023/10/05 01:35:59;;;;;;;7.20;3.55;;;;;;;;;;5012193;28;20228;-71
2023/10/05 01:38:28;;;;;;;7.75;3.28;;;;;;;;;;5009924;28;20210;-71
2023/10/05 01:40:58;;;;;;;5.63;3.53;;;;;;;;;;5009082;28;20725;-71
2023/10/05 01:43:25;;;;;;;3.50;3.20;;;;;;;;;;5009330;28;20210;-71
2023/10/05 01:45:54;;;;;;;4.45;2.83;;;;;;;;;;5009383;28;20669;-71
2023/10/05 01:48:26;;;;;;;5.90;2.78;;;;;;;;;;5009286;28;20663;-71
2023/10/05 01:50:52;;;;;;;3.92;3.00;;;;;;;;;;5009367;28;20198;-71
2023/10/05 01:53:18;;;;;;;7.88;2.85;;;;;;;;;;5011223;28;20221;-71
2023/10/05 01:55:45;;;;;;;5.07;2.75;;;;;;;;;;5011922;28;20253;-71
2023/10/05 01:58:26;;;;;;;2.47;2.28;;;;;;;;;;5011983;28;20605;-71
2023/10/05 02:00:54;;;;;;;3.35;2.40;;;;;;;;;;5011943;28;20214;-71
2023/10/05 02:03:23;;;;;;;2.88;2.40;;;;;;;;;;5011953;28;20210;-71
2023/10/05 02:05:50;;;;;;;2.80;2.50;;;;;;;;;;5011697;28;20220;-71
2023/10/05 02:08:20;;;;;;;6.00;2.83;;;;;;;;;;5011697;28;20202;-71
2023/10/05 02:10:47;;;;;;;5.05;2.95;;;;;;;;;;5011504;28;20206;-71
2023/10/05 02:13:14;;;;;;;4.75;2.60;;;;;;;;;;5011551;28;20234;-71
2023/10/05 02:15:41;;;;;;;3.50;3.00;;;;;;;;;;5011703;28;20269;-70
2023/10/05 02:18:18;;;;;;;5.30;3.00;;;;;;;;;;5011744;28;20202;-70
2023/10/05 02:20:46;;;;;;;6.05;2.92;;;;;;;;;;5011276;28;20220;-71
2023/10/05 02:26:00;;;;;;;7.00;2.95;;;;;;;;;;5002001;28;20229;-71
2023/10/05 02:28:27;;;;;;;3.67;2.92;;;;;;;;;;5011648;28;20298;-71
2023/10/05 02:30:54;;;;;;;3.30;3.03;;;;;;;;;;5011243;28;20814;-71
2023/10/05 02:33:24;;;;;;;3.47;2.80;;;;;;;;;;5011635;28;20207;-71
2023/10/05 02:35:55;;;;;;;2.80;2.60;;;;;;;;;;5011581;28;20214;-71
2023/10/05 02:38:22;;;;;;;3.40;2.35;;;;;;;;;;5011470;28;20598;-71
2023/10/05 02:40:54;;;;;;;4.40;2.70;;;;;;;;;;5011086;28;20688;-71
2023/10/05 02:43:26;;;;;;;4.10;2.28;;;;;;;;;;5011689;28;20205;-71
2023/10/05 02:45:56;;;;;;;4.03;2.42;;;;;;;;;;5011370;28;20257;-71
2023/10/05 02:48:24;;;;;;;3.72;2.67;;;;;;;;;;5011374;28;20229;-71
2023/10/05 02:50:51;;;;;;;4.13;2.75;;;;;;;;;;5011310;28;20256;-71
2023/10/05 02:53:18;;;;;;;2.85;2.63;;;;;;;;;;5011508;28;20202;-71
2023/10/05 02:55:51;;;;;;;4.40;2.63;;;;;;;;;;5011427;28;20229;-71
2023/10/05 02:58:17;;;;;;;2.63;2.50;;;;;;;;;;5011365;28;20206;-71
2023/10/05 03:00:44;;;;;;;4.25;2.45;;;;;;;;;;5010893;28;20249;-71
2023/10/05 03:03:14;;;;;;;2.60;2.35;;;;;;;;;;5011161;28;20214;-71
2023/10/05 03:05:41;;;;;;;5.05;2.53;;;;;;;;;;5011292;28;20226;-71
2023/10/05 03:08:08;;;;;;;4.55;2.92;;;;;;;;;;5011301;28;20210;-71
2023/10/05 03:10:35;;;;;;;2.72;2.53;;;;;;;;;;5011082;28;20298;-71
2023/10/05 03:13:02;;;;;;;4.47;2.72;;;;;;;;;;5011163;28;20681;-71
2023/10/05 03:15:30;;;;;;;2.40;2.20;;;;;;;;;;5010939;28;20250;-70
2023/10/05 03:17:57;;;;;;;4.00;2.95;;;;;;;;;;5010965;28;20667;-71
2023/10/05 03:20:25;;;;;;;2.53;2.33;;;;;;;;;;5011199;28;20234;-71
2023/10/05 03:22:55;;;;;;;4.80;2.58;;;;;;;;;;5012858;28;20218;-70
2023/10/05 03:25:23;;;;;;;6.32;2.63;;;;;;;;;;5014683;28;20560;-70
2023/10/05 03:27:49;;;;;;;3.42;2.83;;;;;;;;;;5014965;28;20207;-70
2023/10/05 03:30:15;;;;;;;5.32;3.03;;;;;;;;;;5014357;28;20210;-70
2023/10/05 03:32:42;;;;;;;5.60;2.92;;;;;;;;;;5014782;28;20202;-70
2023/10/05 03:35:09;;;;;;;3.13;2.70;;;;;;;;;;5014448;28;20230;-70
2023/10/05 03:37:39;;;;;;;4.05;2.20;;;;;;;;;;5014410;28;20202;-70
2023/10/05 03:40:19;;;;;;;2.80;2.38;;;;;;;;;;5014265;28;20587;-70
2023/10/05 03:42:46;;;;;;;3.30;3.00;;;;;;;;;;5014362;28;20457;-70
2023/10/05 03:45:16;;;;;;;2.80;2.60;;;;;;;;;;5014443;28;20301;-70
2023/10/05 03:47:43;;;;;;;3.58;2.97;;;;;;;;;;5014100;28;20692;-70
2023/10/05 03:50:16;;;;;;;3.40;3.00;;;;;;;;;;5014117;28;20230;-70
2023/10/05 03:52:44;;;;;;;5.95;3.28;;;;;;;;;;5014184;28;20213;-70
2023/10/05 03:55:11;;;;;;;4.22;2.97;;;;;;;;;;5014008;28;20234;-71
2023/10/05 03:57:38;;;;;;;5.18;2.83;;;;;;;;;;5014142;28;20206;-71
2023/10/05 04:00:18;;;;;;;3.58;2.83;;;;;;;;;;5013934;28;20222;-71
2023/10/05 04:02:44;;;;;;;8.10;2.88;;;;;;;;;;5014005;28;20226;-71
2023/10/05 04:05:11;;;;;;;3.50;2.63;;;;;;;;;;5013844;28;20261;-71
2023/10/05 04:07:38;;;;;;;4.88;2.95;;;;;;;;;;5013708;28;20628;-71
2023/10/05 04:10:07;;;;;;;3.88;3.05;;;;;;;;;;5013808;28;20199;-71
2023/10/05 04:12:34;;;;;;;4.03;2.88;;;;;;;;;;5013884;28;20202;-71
2023/10/05 04:15:01;;;;;;;5.85;3.40;;;;;;;;;;5013612;28;20614;-71
2023/10/05 04:17:27;;;;;;;5.72;3.15;;;;;;;;;;5013721;28;20314;-71
2023/10/05 04:19:54;;;;;;;5.28;3.45;;;;;;;;;;5013311;28;20202;-70
2023/10/05 04:22:20;;;;;;;4.75;4.07;;;;;;;;;;5013531;28;20303;-70
2023/10/05 04:24:47;;;;;;;4.38;3.40;;;;;;;;;;5013187;28;20198;-70
2023/10/05 04:27:18;;;;;;;4.68;3.47;;;;;;;;;;5013677;28;20202;-70
2023/10/05 04:29:44;;;;;;;5.45;3.33;;;;;;;;;;5013430;28;20198;-70
2023/10/05 04:32:12;;;;;;;6.85;3.58;;;;;;;;;;5013429;28;20206;-70
2023/10/05 04:34:38;;;;;;;3.97;3.42;;;;;;;;;;5012226;28;20198;-71
2023/10/05 04:37:04;;;;;;;6.20;3.80;;;;;;;;;;5013220;28;20611;-70
2023/10/05 04:39:32;;;;;;;7.20;3.50;;;;;;;;;;5013034;28;20194;-71
2023/10/05 04:42:05;;;;;;;4.78;3.13;;;;;;;;;;5012954;28;20222;-71
2023/10/05 04:44:34;;;;;;;5.25;3.17;;;;;;;;;;5013176;28;20199;-71
2023/10/05 04:47:03;;;;;;;4.90;3.67;;;;;;;;;;5012976;28;20641;-71
2023/10/05 04:49:29;;;;;;;4.05;3.30;;;;;;;;;;5012840;28;20225;-71
2023/10/05 04:51:57;;;;;;;5.72;3.40;;;;;;;;;;5013174;28;20194;-71
2023/10/05 04:54:25;;;;;;;4.05;3.42;;;;;;;;;;5012888;28;20782;-71
2023/10/05 04:57:03;;;;;;;4.82;3.35;;;;;;;;;;5012934;28;20233;-71
2023/10/05 04:59:47;;;;;;;5.45;3.15;;;;;;;;;;5012592;28;20679;-71
2023/10/05 05:02:21;;;;;;;10.27;3.53;;;;;;;;;;5013057;28;20461;-71
2023/10/05 05:05:04;;;;;;;5.68;3.38;;;;;;;;;;5012714;28;20256;-71
2023/10/05 05:07:30;;;;;;;4.85;2.78;;;;;;;;;;5012776;28;20194;-60
2023/10/05 05:09:59;;;;;;;3.88;3.03;;;;;;;;;;5012268;28;20209;-60
2023/10/05 05:12:26;;;;;;;4.80;3.53;;;;;;;;;;5012732;28;20198;-60
2023/10/05 05:14:53;;;;;;;7.90;3.00;;;;;;;;;;5012496;28;20226;-60
2023/10/05 05:17:22;;;;;;;8.25;3.40;;;;;;;;;;5012608;28;20202;-60
2023/10/05 05:19:51;;;;;;;9.80;3.15;;;;;;;;;;5012098;28;20690;-60
2023/10/05 05:22:18;;;;;;;6.60;3.75;;;;;;;;;;5012141;28;20742;-60
2023/10/05 05:24:45;;;;;;;7.47;3.22;;;;;;;;;;5012181;28;20289;-60
2023/10/05 05:27:21;;;;;;;7.95;3.15;;;;;;;;;;5004450;28;20229;-59
2023/10/05 05:29:47;;;;;;;7.18;4.10;;;;;;;;;;5012069;28;20199;-60
2023/10/05 05:32:14;;;;;;;6.47;3.88;;;;;;;;;;5012208;28;20284;-60
2023/10/05 05:34:42;;;;;;;4.93;3.25;;;;;;;;;;5012277;28;20202;-61
2023/10/05 05:37:11;;;;;;;9.30;3.50;;;;;;;;;;5011849;28;20219;-61
2023/10/05 05:39:39;;;;;;;14.38;3.70;;;;;;;;;;5012048;28;20206;-60
2023/10/05 05:42:07;;;;;;;7.65;3.90;;;;;;;;;;5012045;28;20723;-60
2023/10/05 05:44:34;;;;;;;3.97;3.20;;;;;;;;;;5011885;28;20729;-61
2023/10/05 05:47:07;;;;;;;3.95;3.17;;;;;;;;;;5011874;28;20222;-60
2023/10/05 05:49:34;;;;;;;6.43;3.75;;;;;;;;;;5011757;28;20282;-60
2023/10/05 05:52:02;;;;;;;3.85;3.45;;;;;;;;;;5012163;28;20237;-61
2023/10/05 05:54:30;;;;;;;5.80;3.50;;;;;;;;;;5012214;28;20194;-61
2023/10/05 05:56:57;;;;;;;4.40;3.50;;;;;;;;;;5011713;28;20281;-60
2023/10/05 05:59:23;;;;;;;6.63;3.22;;;;;;;;;;5011480;28;20671;-61
2023/10/05 06:01:50;;;;;;;7.32;3.75;;;;;;;;;;5011660;28;20226;-60
2023/10/05 06:04:16;;;;;;;4.28;3.13;;;;;;;;;;5011638;28;20205;-60
2023/10/05 06:06:43;;;;;;;6.45;3.40;;;;;;;;;;5011720;28;20226;-60
2023/10/05 06:09:11;;;;;;;8.95;3.63;;;;;;;;;;5011477;28;20214;-61
2023/10/05 06:11:40;;;;;;;3.17;2.83;;;;;;;;;;5011778;28;20252;-61
2023/10/05 06:14:06;;;;;;;4.93;3.00;;;;;;;;;;5011584;28;20230;-60
2023/10/05 06:16:34;;;;;;;7.07;3.22;;;;;;;;;;5011605;28;20222;-60
2023/10/05 06:19:01;;;;;;;7.00;3.50;;;;;;;;;;5011223;28;20234;-60
2023/10/05 06:21:27;;;;;;;8.00;3.33;;;;;;;;;;5011698;28;20209;-61
2023/10/05 06:23:54;;;;;;;11.25;3.75;;;;;;;;;;5011638;28;20222;-60
2023/10/05 06:26:23;;;;;;;9.35;3.63;;;;;;;;;;5011507;28;20214;-60
2023/10/05 06:28:50;;;;;;;8.52;3.33;;;;;;;;;;5011258;28;20675;-61
2023/10/05 06:31:16;;;;;;;6.85;3.58;;;;;;;;;;5003157;28;20206;-61
2023/10/05 06:33:45;;;;;;;8.75;3.85;;;;;;;;;;5011869;28;20198;-61
2023/10/05 06:36:11;;;;;;;6.63;3.63;;;;;;;;;;5011455;28;20258;-61
2023/10/05 06:38:38;;;;;;;9.70;3.55;;;;;;;;;;5003457;28;20214;-61
2023/10/05 06:41:11;;;;;;;5.50;3.35;;;;;;;;;;5007759;28;20690;-60
2023/10/05 06:43:39;;;;;;;6.63;3.53;;;;;;;;;;5007235;28;20220;-61
2023/10/05 06:46:09;;;;;;;9.27;4.18;;;;;;;;;;5006702;28;20655;-61
2023/10/05 06:48:36;;;;;;;9.52;3.70;;;;;;;;;;5002066;28;20237;-61
2023/10/05 06:51:03;;;;;;;6.80;3.85;;;;;;;;;;5002419;28;20214;-61
2023/10/05 06:53:29;;;;;;;9.75;3.42;;;;;;;;;;5002155;28;20260;-61
2023/10/05 06:55:56;;;;;;;8.40;3.72;;;;;;;;;;5002432;28;20227;-61
2023/10/05 06:58:22;;;;;;;6.35;3.33;;;;;;;;;;5005487;28;20679;-61
2023/10/05 07:00:52;;;;;;;7.35;3.33;;;;;;;;;;5006779;28;20221;-61
2023/10/05 07:03:20;;;;;;;8.40;3.45;;;;;;;;;;5005315;28;20218;-59
2023/10/05 07:05:46;;;;;;;7.28;3.45;;;;;;;;;;5007639;28;20512;-59
2023/10/05 07:08:14;;;;;;;5.95;3.40;;;;;;;;;;5006104;28;20214;-62
2023/10/05 07:10:40;;;;;;;4.60;3.22;;;;;;;;;;5005415;28;20211;-62
2023/10/05 07:13:08;;;;;;;8.63;3.47;;;;;;;;;;5005595;28;20235;-62
2023/10/05 07:15:35;;;;;;;6.20;3.38;;;;;;;;;;5005743;28;20288;-63
2023/10/05 07:18:03;;;;;;;4.90;3.25;;;;;;;;;;5006220;28;20214;-63
2023/10/05 07:20:30;;;;;;;5.63;3.60;;;;;;;;;;5005699;28;20897;-63
2023/10/05 07:22:56;;;;;;;6.40;3.22;;;;;;;;;;5006546;28;20226;-62
2023/10/05 07:25:23;;;;;;;11.85;3.90;;;;;;;;;;5006136;28;20226;-62
2023/10/05 07:27:49;;;;;;;6.68;3.45;;;;;;;;;;5006659;28;20217;-63
2023/10/05 07:30:16;;;;;;;4.53;3.05;;;;;;;;;;5005483;28;20216;-62
2023/10/05 07:32:42;;;;;;;7.90;3.53;;;;;;;;;;5008128;28;20202;-62
2023/10/05 07:35:13;;;;;;;8.07;3.85;;;;;;;;;;5006889;28;20229;-61
2023/10/05 07:37:39;;;;;;;6.05;3.58;;;;;;;;;;5006952;28;20206;-60
2023/10/05 07:40:07;;;;;;;4.95;3.83;;;;;;;;;;5006066;28;20211;-61
2023/10/05 07:42:34;;;;;;;8.38;4.00;;;;;;;;;;5006268;28;20713;-62
2023/10/05 07:45:00;;;;;;;13.45;4.90;;;;;;;;;;5006434;28;20242;-60
2023/10/05 07:47:26;;;;;;;6.45;5.20;;;;;;;;;;5006568;28;20288;-61
2023/10/05 07:49:53;;;;;;;9.20;4.45;;;;;;;;;;5006205;28;20869;-61
2023/10/05 07:52:21;;;;;;;7.05;4.18;;;;;;;;;;5006585;28;20242;-63
2023/10/05 07:54:47;;;;;;;10.63;4.40;;;;;;;;;;5006086;28;20616;-61
2023/10/05 07:57:14;;;;;;;5.60;3.90;;;;;;;;;;5006976;28;20302;-61
2023/10/05 07:59:41;;;;;;;6.00;3.50;;;;;;;;;;5006229;28;20206;-61
2023/10/05 08:02:08;;;;;;;12.35;3.72;;;;;;;;;;5006313;28;20305;-60
2023/10/05 08:04:35;;;;;;;6.95;3.55;;;;;;;;;;5005605;28;20218;-62
2023/10/05 08:07:02;;;;;;;18.23;4.10;;;;;;;;;;5006439;28;20226;-62
2023/10/05 08:09:30;;;;;;;11.80;4.53;;;;;;;;;;5005563;28;20574;-63
2023/10/05 08:11:56;;;;;;;7.97;3.40;;;;;;;;;;5006338;28;20687;-62
2023/10/05 08:14:24;;;;;;;5.10;3.10;;;;;;;;;;5007006;28;20557;-62
2023/10/05 08:16:50;;;;;;;7.22;3.50;;;;;;;;;;5006227;28;20218;-62
2023/10/05 08:19:19;;;;;;;7.20;3.40;;;;;;;;;;5006065;28;20218;-63
2023/10/05 08:21:45;;;;;;;4.22;2.97;;;;;;;;;;5006709;28;20213;-61
2023/10/05 08:24:13;;;;;;;4.75;2.95;;;;;;;;;;5006233;28;20250;-59
2023/10/05 08:26:41;;;;;;;8.32;3.70;;;;;;;;;;5005963;28;20226;-60
2023/10/05 08:29:09;;;;;;;5.68;3.17;;;;;;;;;;5006250;28;20354;-62
2023/10/05 08:31:35;;;;;;;6.13;3.78;;;;;;;;;;5006096;28;20210;-61
2023/10/05 08:34:03;;;;;;;11.88;3.90;;;;;;;;;;5013617;28;20206;-61
2023/10/05 08:36:29;;;;;;;6.40;3.40;;;;;;;;;;5005937;28;20648;-62
2023/10/05 08:38:56;;;;;;;8.15;3.35;;;;;;;;;;5005099;28;20206;-60
2023/10/05 08:41:31;;;;;;;3.97;2.92;;;;;;;;;;5006139;28;20270;-62
2023/10/05 08:43:59;;;;;;;3.05;2.67;;;;;;;;;;5006228;28;20218;-60
2023/10/05 08:46:25;;;;;;;3.90;3.17;;;;;;;;;;5006272;28;20261;-60
2023/10/05 08:48:52;;;;;;;3.45;3.15;;;;;;;;;;5004593;28;20207;-61
2023/10/05 08:51:18;;;;;;;4.85;3.22;;;;;;;;;;5005856;28;20665;-61
2023/10/05 08:53:48;;;;;;;5.60;3.05;;;;;;;;;;5005716;28;20218;-60
2023/10/05 08:56:15;;;;;;;3.33;3.03;;;;;;;;;;5005803;28;20309;-61
2023/10/05 08:58:45;;;;;;;7.53;3.17;;;;;;;;;;5005876;28;20598;-61
2023/10/05 09:01:25;;;;;;;8.52;3.42;;;;;;;;;;5005542;28;20904;-60
2023/10/05 09:04:01;;;;;;;5.13;3.35;;;;;;;;;;5005724;28;20217;-61
2023/10/05 09:06:27;;;;;;;4.28;3.17;;;;;;;;;;5005000;28;20241;-61
2023/10/05 09:09:01;;;;;;;4.68;2.97;;;;;;;;;;5005874;28;20213;-61
2023/10/05 09:11:31;;;;;;;5.93;3.33;;;;;;;;;;5005548;28;20233;-60
2023/10/05 09:13:58;;;;;;;4.25;3.20;;;;;;;;;;5005709;28;20691;-60
2023/10/05 09:16:30;;;;;;;3.03;2.67;;;;;;;;;;5005256;28;20233;-61
2023/10/05 09:18:57;;;;;;;3.80;3.20;;;;;;;;;;5004679;28;20217;-61
2023/10/05 09:21:25;;;;;;;7.93;2.85;;;;;;;;;;5005335;28;20233;-61
2023/10/05 09:23:51;;;;;;;6.68;2.78;;;;;;;;;;5005629;28;20519;-61
2023/10/05 09:26:33;;;;;;;7.90;3.20;;;;;;;;;;5005485;28;20226;-61
2023/10/05 09:29:20;;;;;;;9.15;2.80;;;;;;;;;;5005027;28;20213;-61
2023/10/05 09:31:50;;;;;;;4.93;3.22;;;;;;;;;;5005506;28;20223;-61
2023/10/05 09:34:17;;;;;;;5.07;3.13;;;;;;;;;;5005718;28;20213;-61
2023/10/05 09:36:43;;;;;;;10.32;3.47;;;;;;;;;;5005262;28;20226;-60
2023/10/05 09:39:11;;;;;;;7.72;3.58;;;;;;;;;;5005348;28;20227;-61
2023/10/05 09:41:37;;;;;;;8.57;3.20;;;;;;;;;;5005509;28;20611;-61
2023/10/05 09:44:07;;;;;;;6.22;2.90;;;;;;;;;;5005343;28;20226;-61
2023/10/05 09:46:34;;;;;;;8.32;3.33;;;;;;;;;;5004691;28;20226;-61
2023/10/05 09:49:05;;;;;;;7.13;2.90;;;;;;;;;;5004354;28;20207;-61
2023/10/05 09:51:34;;;;;;;7.97;3.28;;;;;;;;;;5005450;28;20207;-61
2023/10/05 09:54:01;;;;;;;13.32;3.75;;;;;;;;;;5005336;28;20764;-61
2023/10/05 09:56:28;;;;;;;9.93;3.67;;;;;;;;;;5005212;28;20233;-61
2023/10/05 09:58:58;;;;;;;7.22;3.50;;;;;;;;;;5005254;28;20233;-61
2023/10/05 10:01:26;;;;;;;10.95;3.78;;;;;;;;;;5005302;28;20210;-62
2023/10/05 10:03:54;;;;;;;8.18;4.18;;;;;;;;;;5004774;28;20226;-62
2023/10/05 10:06:28;;;;;;;8.30;3.47;;;;;;;;;;5004223;28;20436;-62
2023/10/05 10:08:56;;;;;;;7.40;3.63;;;;;;;;;;5005313;28;20679;-61
2023/10/05 10:11:24;;;;;;;14.63;3.55;;;;;;;;;;5004677;28;20214;-62
2023/10/05 10:13:59;;;;;;;11.77;4.15;;;;;;;;;;5005611;28;20835;-63
2023/10/05 10:16:27;;;;;;;9.43;3.55;;;;;;;;;;5005089;28;20226;-62
2023/10/05 10:18:57;;;;;;;10.93;3.72;;;;;;;;;;5004264;28;20214;-63
2023/10/05 10:21:32;;;;;;;37.95;6.88;;;;;;;;;;5005230;28;20593;-63
2023/10/05 10:24:04;;;;;;;12.70;3.85;;;;;;;;;;5004540;28;20629;-64
2023/10/05 10:26:31;;;;;;;6.72;3.50;;;;;;;;;;5004453;28;20230;-63
2023/10/05 10:28:58;;;;;;;11.15;3.58;;;;;;;;;;5004615;28;20301;-63
2023/10/05 10:31:30;;;;;;;12.57;4.00;;;;;;;;;;5004110;28;20268;-63
2023/10/05 10:33:56;;;;;;;12.85;4.57;;;;;;;;;;5009337;28;20217;-63
2023/10/05 10:36:43;;;;;;;14.73;4.90;;;;;;;;;;5008641;28;20222;-64
2023/10/05 10:39:23;;;;;;;9.13;4.45;;;;;;;;;;5007983;28;20301;-63
2023/10/05 10:42:01;;;;;;;14.57;4.30;;;;;;;;;;5007800;28;20202;-64
2023/10/05 10:44:28;;;;;;;10.63;3.83;;;;;;;;;;5008582;28;20248;-64
2023/10/05 10:47:08;;;;;;;7.80;4.35;;;;;;;;;;5008765;28;20233;-63
2023/10/05 10:49:39;;;;;;;12.95;4.32;;;;;;;;;;5007981;28;20690;-63
2023/10/05 10:52:09;;;;;;;9.95;4.40;;;;;;;;;;5008620;28;20736;-63
2023/10/05 10:54:37;;;;;;;14.45;4.70;;;;;;;;;;5007810;28;20210;-63
2023/10/05 10:57:06;;;;;;;7.93;3.90;;;;;;;;;;5008317;28;20280;-63
2023/10/05 10:59:41;;;;;;;10.05;4.47;;;;;;;;;;5007910;28;20628;-63
2023/10/05 11:02:11;;;;;;;8.95;4.32;;;;;;;;;;5008666;28;20210;-63
2023/10/05 11:04:39;;;;;;;10.93;4.82;;;;;;;;;;5007538;28;20644;-61
2023/10/05 11:07:05;;;;;;;9.65;4.30;;;;;;;;;;5007654;28;20679;-62
2023/10/05 11:09:36;;;;;;;14.00;5.10;;;;;;;;;;5007943;28;20211;-61
2023/10/05 11:12:11;;;;;;;10.73;4.32;;;;;;;;;;5007762;28;20210;-63
2023/10/05 11:14:38;;;;;;;14.05;4.75;;;;;;;;;;5008397;28;20497;-61
2023/10/05 11:17:11;;;;;;;10.85;4.63;;;;;;;;;;5007904;28;20789;-62
2023/10/05 11:19:38;;;;;;;8.52;4.35;;;;;;;;;;5007289;28;20214;-62
2023/10/05 11:22:11;;;;;;;11.68;4.85;;;;;;;;;;5007776;28;20276;-62
2023/10/05 11:24:57;;;;;;;8.93;4.35;;;;;;;;;;5007438;28;20222;-62
2023/10/05 11:27:25;;;;;;;12.63;5.00;;;;;;;;;;5007226;28;20543;-62
2023/10/05 11:29:55;;;;;;;12.00;4.45;;;;;;;;;;5007743;28;20278;-62
2023/10/05 11:32:24;;;;;;;15.15;4.78;;;;;;;;;;5009876;28;20543;-62
2023/10/05 11:34:55;;;;;;;16.52;5.10;;;;;;;;;;5006894;28;20202;-62
2023/10/05 11:37:25;;;;;;;9.88;4.18;;;;;;;;;;5007681;28;20305;-60
2023/10/05 11:39:58;;;;;;;11.52;4.78;;;;;;;;;;5007608;28;20734;-62
2023/10/05 11:42:27;;;;;;;9.45;4.63;;;;;;;;;;5007344;28;20313;-62
2023/10/05 11:44:55;;;;;;;9.45;4.35;;;;;;;;;;5007521;28;20249;-63
2023/10/05 11:47:24;;;;;;;10.98;4.40;;;;;;;;;;5006833;28;20300;-64
2023/10/05 11:49:50;;;;;;;14.02;5.05;;;;;;;;;;5010740;28;20214;-62
2023/10/05 11:52:17;;;;;;;10.40;4.18;;;;;;;;;;5018367;28;20600;-59
2023/10/05 11:54:43;;;;;;;11.45;4.57;;;;;;;;;;5007091;28;20202;-59
2023/10/05 11:57:09;;;;;;;9.85;4.47;;;;;;;;;;5006580;28;20296;-58
2023/10/05 11:59:38;;;;;;;14.25;4.65;;;;;;;;;;5007069;28;20217;-62
2023/10/05 12:02:08;;;;;;;8.55;4.20;;;;;;;;;;5006626;28;20210;-60
2023/10/05 12:04:39;;;;;;;10.43;4.57;;;;;;;;;;5006283;28;20241;-62
2023/10/05 12:07:05;;;;;;;13.60;5.07;;;;;;;;;;5006955;28;20230;-61
2023/10/05 12:09:32;;;;;;;11.57;4.45;;;;;;;;;;5006210;28;20210;-60
2023/10/05 12:11:59;;;;;;;12.40;4.32;;;;;;;;;;5006328;28;20210;-60
2023/10/05 12:14:25;;;;;;;17.67;5.00;;;;;;;;;;5006865;28;20234;-61
2023/10/05 12:16:56;;;;;;;10.13;3.90;;;;;;;;;;5006957;28;20309;-60
2023/10/05 12:19:27;;;;;;;11.40;4.65;;;;;;;;;;5005938;28;20221;-61
2023/10/05 12:21:55;;;;;;;11.15;4.25;;;;;;;;;;5006854;28;20203;-62
2023/10/05 12:24:21;;;;;;;9.57;4.25;;;;;;;;;;5006404;28;20234;-62
2023/10/05 12:26:47;;;;;;;12.38;4.03;;;;;;;;;;5006446;28;20230;-60
2023/10/05 12:29:14;;;;;;;9.23;4.05;;;;;;;;;;5006781;28;20238;-63
2023/10/05 12:31:40;;;;;;;10.55;4.35;;;;;;;;;;5006812;28;20218;-63
2023/10/05 12:34:14;;;;;;;10.77;4.22;;;;;;;;;;5008741;28;20584;-61
2023/10/05 12:36:41;;;;;;;10.40;4.28;;;;;;;;;;5008704;28;20609;-60
2023/10/05 12:39:10;;;;;;;7.32;3.80;;;;;;;;;;5006045;28;20222;-62
2023/10/05 12:41:40;;;;;;;9.48;4.10;;;;;;;;;;5006043;28;20297;-61
2023/10/05 12:44:09;;;;;;;8.68;3.88;;;;;;;;;;5006262;28;20679;-63
2023/10/05 12:46:39;;;;;;;9.90;4.10;;;;;;;;;;5006283;28;20233;-62
2023/10/05 12:49:07;;;;;;;8.48;4.20;;;;;;;;;;5005273;28;20268;-61
2023/10/05 12:51:35;;;;;;;13.10;4.20;;;;;;;;;;5005666;28;20241;-61
2023/10/05 12:54:02;;;;;;;8.82;4.03;;;;;;;;;;5005421;28;20252;-60
2023/10/05 12:56:29;;;;;;;8.85;3.90;;;;;;;;;;5005058;28;20226;-60
2023/10/05 12:58:56;;;;;;;8.07;3.92;;;;;;;;;;5005776;28;20210;-60
2023/10/05 13:01:26;;;;;;;9.15;3.63;;;;;;;;;;5005199;28;20705;-59
2023/10/05 13:03:52;;;;;;;13.32;4.00;;;;;;;;;;5005583;28;20234;-60
2023/10/05 13:06:18;;;;;;;10.45;3.70;;;;;;;;;;5005323;28;20602;-61
2023/10/05 13:08:46;;;;;;;6.75;3.53;;;;;;;;;;5005347;28;20529;-61
2023/10/05 13:11:13;;;;;;;8.27;3.75;;;;;;;;;;5005713;28;20527;-61
2023/10/05 13:13:39;;;;;;;9.38;3.92;;;;;;;;;;5005606;28;20256;-61
2023/10/05 13:16:13;;;;;;;9.32;3.78;;;;;;;;;;5005562;28;20335;-61
2023/10/05 13:18:39;;;;;;;11.45;3.67;;;;;;;;;;5004487;28;20715;-61
2023/10/05 13:21:09;;;;;;;9.55;3.92;;;;;;;;;;5005713;28;20591;-61
2023/10/05 13:23:36;;;;;;;7.97;3.15;;;;;;;;;;5006078;28;20437;-61
2023/10/05 13:26:06;;;;;;;5.70;3.55;;;;;;;;;;5005407;28;20591;-61
2023/10/05 13:28:32;;;;;;;11.38;3.53;;;;;;;;;;5005879;28;20214;-61
2023/10/05 13:30:59;;;;;;;8.57;3.90;;;;;;;;;;5006295;28;20210;-61
2023/10/05 13:33:29;;;;;;;8.30;3.92;;;;;;;;;;5009882;28;20218;-61
2023/10/05 13:35:56;;;;;;;9.32;3.58;;;;;;;;;;5006083;28;20250;-62
2023/10/05 13:38:28;;;;;;;9.38;3.97;;;;;;;;;;5006003;28;20211;-62
2023/10/05 13:41:13;;;;;;;8.13;3.30;;;;;;;;;;5005599;28;20210;-62
2023/10/05 13:43:41;;;;;;;13.15;3.70;;;;;;;;;;5005585;28;20246;-61
2023/10/05 13:46:12;;;;;;;11.30;3.75;;;;;;;;;;5005649;28;20230;-61
2023/10/05 13:48:39;;;;;;;9.90;3.80;;;;;;;;;;5005800;28;20218;-61
2023/10/05 13:51:10;;;;;;;8.40;3.42;;;;;;;;;;5005129;28;20228;-61
2023/10/05 13:53:38;;;;;;;7.97;3.90;;;;;;;;;;5005526;28;20225;-61
2023/10/05 13:56:04;;;;;;;11.70;4.10;;;;;;;;;;5005375;28;20593;-61
2023/10/05 13:58:31;;;;;;;10.65;4.13;;;;;;;;;;5005734;28;20218;-61
2023/10/05 14:01:01;;;;;;;9.43;3.83;;;;;;;;;;5006926;28;20202;-61
2023/10/05 14:03:27;;;;;;;9.80;4.07;;;;;;;;;;5007454;28;20211;-62
2023/10/05 14:06:01;;;;;;;9.52;3.60;;;;;;;;;;5011630;28;20226;-60
2023/10/05 14:08:27;;;;;;;7.60;3.50;;;;;;;;;;5012079;28;20207;-59
2023/10/05 14:10:54;;;;;;;8.00;3.85;;;;;;;;;;5010062;28;20206;-60
2023/10/05 14:13:22;;;;;;;7.65;3.67;;;;;;;;;;5012003;28;20213;-60
2023/10/05 14:15:48;;;;;;;10.13;3.50;;;;;;;;;;5011808;28;20219;-60
2023/10/05 14:18:17;;;;;;;9.77;3.85;;;;;;;;;;5011715;28;20206;-59
2023/10/05 14:20:47;;;;;;;7.00;3.75;;;;;;;;;;5011289;28;20653;-58
2023/10/05 14:23:14;;;;;;;6.25;3.60;;;;;;;;;;5012051;28;20209;-60
2023/10/05 14:25:40;;;;;;;8.30;3.35;;;;;;;;;;5011496;28;20222;-60
2023/10/05 14:28:08;;;;;;;8.85;3.72;;;;;;;;;;5011576;28;20202;-60
2023/10/05 14:30:35;;;;;;;9.95;3.85;;;;;;;;;;5011150;28;20289;-60
2023/10/05 14:33:03;;;;;;;7.55;3.78;;;;;;;;;;5011443;28;20635;-60
2023/10/05 14:35:31;;;;;;;8.52;4.07;;;;;;;;;;5011529;28;20233;-60
2023/10/05 14:37:58;;;;;;;7.63;4.10;;;;;;;;;;5011331;28;20206;-60
2023/10/05 14:40:26;;;;;;;7.57;3.90;;;;;;;;;;5011086;28;20205;-60
2023/10/05 14:42:53;;;;;;;6.40;3.08;;;;;;;;;;5011307;28;20199;-60
2023/10/05 14:45:21;;;;;;;9.25;4.53;;;;;;;;;;5011237;28;20230;-60
2023/10/05 14:47:49;;;;;;;8.38;4.15;;;;;;;;;;5011538;28;20230;-60
2023/10/05 14:50:17;;;;;;;10.45;3.92;;;;;;;;;;5011641;28;20530;-61
2023/10/05 14:52:48;;;;;;;8.27;3.78;;;;;;;;;;5011751;28;20260;-60